createdAt,value
2017-09-24T00:01:10.828Z,19.62
2017-09-24T00:03:40.776Z,18.35
2017-09-24T00:06:11.023Z,16.90
2017-09-24T00:08:40.882Z,18.62
2017-09-24T00:11:12.625Z,18.02
2017-09-24T00:13:42.750Z,18.95
2017-09-24T00:16:13.040Z,17.45
2017-09-24T00:18:45.890Z,18.12
2017-09-24T00:21:15.599Z,18.50
2017-09-24T00:23:46.735Z,17.65
2017-09-24T00:26:18.058Z,17.92
2017-09-24T00:28:50.925Z,17.05
2017-09-24T00:31:26.962Z,17.08
2017-09-24T00:33:59.534Z,17.37
2017-09-24T00:36:33.003Z,19.20
2017-09-24T00:39:04.071Z,19.58
2017-09-24T00:41:34.215Z,19.60
2017-09-24T00:44:05.829Z,20.50
2017-09-24T00:46:35.766Z,21.12
2017-09-24T00:49:05.987Z,20.50
2017-09-24T00:51:35.508Z,20.42
2017-09-24T00:54:07.259Z,22.77
2017-09-24T00:56:39.750Z,22.67
2017-09-24T00:59:12.662Z,23.42
2017-09-24T01:01:43.229Z,22.80
2017-09-24T01:04:12.730Z,22.98
2017-09-24T01:06:45.627Z,22.73
2017-09-24T01:09:15.571Z,23.02
2017-09-24T01:11:46.985Z,20.90
2017-09-24T01:16:51.682Z,24.20
2017-09-24T01:19:22.771Z,24.85
2017-09-24T01:21:52.924Z,23.62
2017-09-24T01:24:24.788Z,24.42
2017-09-24T01:26:54.589Z,23.10
2017-09-24T01:29:24.601Z,22.80
2017-09-24T01:31:55.214Z,24.70
2017-09-24T01:34:27.352Z,23.25
2017-09-24T01:36:57.121Z,23.35
2017-09-24T01:39:30.798Z,22.73
2017-09-24T01:42:02.753Z,22.10
2017-09-24T01:44:36.185Z,20.42
2017-09-24T01:47:07.211Z,21.73
2017-09-24T01:49:37.431Z,22.80
2017-09-24T01:52:07.565Z,22.83
2017-09-24T01:54:42.406Z,23.33
2017-09-24T01:57:13.534Z,25.25
2017-09-24T01:59:44.920Z,24.05
2017-09-24T02:02:15.536Z,25.00
2017-09-24T02:04:46.615Z,24.08
2017-09-24T02:07:17.757Z,22.50
2017-09-24T02:09:47.490Z,22.95
2017-09-24T02:12:20.551Z,21.65
2017-09-24T02:14:50.740Z,22.40
2017-09-24T02:17:22.042Z,22.35
2017-09-24T02:19:54.053Z,22.45
2017-09-24T02:22:24.941Z,22.13
2017-09-24T02:24:55.862Z,21.77
2017-09-24T02:27:27.238Z,21.45
2017-09-24T02:29:58.229Z,20.60
2017-09-24T02:37:53.837Z,20.92
2017-09-24T02:40:24.712Z,20.05
2017-09-24T02:42:54.721Z,20.67
2017-09-24T02:48:00.520Z,20.12
2017-09-24T02:50:30.881Z,19.67
2017-09-24T02:53:02.779Z,20.33
2017-09-24T02:55:33.802Z,20.10
2017-09-24T02:58:05.969Z,21.23
2017-09-24T03:00:37.024Z,21.27
2017-09-24T03:03:07.811Z,21.00
2017-09-24T03:05:38.627Z,22.80
2017-09-24T03:08:11.655Z,20.10
2017-09-24T03:10:44.954Z,20.10
2017-09-24T03:13:15.973Z,20.80
2017-09-24T03:15:47.980Z,21.10
2017-09-24T03:18:18.455Z,19.33
2017-09-24T03:20:49.703Z,19.98
2017-09-24T03:23:21.289Z,22.02
2017-09-24T03:25:51.273Z,21.70
2017-09-24T03:28:22.078Z,20.67
2017-09-24T03:30:52.686Z,21.52
2017-09-24T03:33:23.513Z,21.35
2017-09-24T03:35:53.786Z,21.08
2017-09-24T03:38:26.330Z,21.62
2017-09-24T03:40:59.747Z,19.73
2017-09-24T03:46:08.600Z,21.58
2017-09-24T03:48:38.811Z,22.40
2017-09-24T03:51:10.536Z,23.10
2017-09-24T03:56:15.459Z,23.80
2017-09-24T03:58:45.361Z,22.05
2017-09-24T04:01:15.020Z,22.98
2017-09-24T04:03:44.673Z,21.30
2017-09-24T04:06:14.687Z,20.33
2017-09-24T04:08:44.258Z,21.87
2017-09-24T04:11:15.762Z,22.37
2017-09-24T04:13:46.253Z,21.25
2017-09-24T04:16:18.529Z,20.17
2017-09-24T04:18:48.837Z,19.60
2017-09-24T04:21:22.807Z,21.42
2017-09-24T04:23:53.450Z,20.05
2017-09-24T04:26:24.359Z,20.60
2017-09-24T04:28:55.539Z,20.60
2017-09-24T04:31:27.806Z,19.90
2017-09-24T04:34:00.564Z,23.17
2017-09-24T04:36:30.765Z,21.45
2017-09-24T04:39:01.339Z,20.35
2017-09-24T04:41:31.830Z,20.90
2017-09-24T04:44:02.512Z,19.75
2017-09-24T04:46:32.277Z,20.10
2017-09-24T04:49:02.407Z,21.85
2017-09-24T04:51:32.863Z,21.30
2017-09-24T04:54:02.943Z,22.35
2017-09-24T04:56:34.611Z,21.73
2017-09-24T04:59:06.760Z,23.27
2017-09-24T05:01:37.831Z,21.65
2017-09-24T05:04:08.767Z,22.20
2017-09-24T05:06:39.381Z,22.33
2017-09-24T05:09:09.331Z,23.10
2017-09-24T05:11:40.041Z,22.10
2017-09-24T05:14:10.170Z,21.80
2017-09-24T05:16:40.728Z,22.00
2017-09-24T05:19:13.104Z,22.33
2017-09-24T05:21:43.273Z,22.55
2017-09-24T05:24:15.337Z,22.00
2017-09-24T05:26:45.881Z,23.02
2017-09-24T05:29:17.503Z,23.02
2017-09-24T05:31:48.065Z,23.83
2017-09-24T05:34:20.664Z,22.27
2017-09-24T05:36:52.673Z,22.13
2017-09-24T05:39:23.669Z,21.65
2017-09-24T05:41:55.496Z,22.27
2017-09-24T05:44:26.628Z,22.10
2017-09-24T05:46:57.040Z,22.62
2017-09-24T05:49:28.213Z,20.90
2017-09-24T05:51:59.944Z,21.17
2017-09-24T05:54:29.907Z,21.90
2017-09-24T05:57:00.606Z,22.62
2017-09-24T05:59:33.240Z,21.65
2017-09-24T06:02:05.965Z,23.12
2017-09-24T06:04:38.738Z,21.33
2017-09-24T06:07:12.998Z,21.73
2017-09-24T06:09:46.639Z,24.75
2017-09-24T06:12:16.084Z,23.95
2017-09-24T06:14:46.193Z,25.27
2017-09-24T06:17:18.442Z,25.40
2017-09-24T06:19:48.659Z,23.38
2017-09-24T06:22:18.518Z,24.70
2017-09-24T06:24:52.507Z,25.37
2017-09-24T06:27:23.130Z,25.15
2017-09-24T06:29:53.460Z,25.40
2017-09-24T06:32:24.795Z,26.60
2017-09-24T06:34:55.433Z,25.15
2017-09-24T06:37:27.118Z,24.20
2017-09-24T06:39:58.755Z,27.00
2017-09-24T06:42:30.669Z,26.58
2017-09-24T06:45:02.202Z,26.45
2017-09-24T06:47:36.775Z,27.00
2017-09-24T06:50:08.827Z,25.52
2017-09-24T06:52:39.795Z,26.20
2017-09-24T06:55:09.885Z,26.48
2017-09-24T06:57:41.528Z,24.45
2017-09-24T07:00:11.572Z,27.00
2017-09-24T07:02:42.311Z,27.45
2017-09-24T07:05:12.353Z,29.87
2017-09-24T07:07:43.672Z,29.15
2017-09-24T07:10:17.374Z,30.00
2017-09-24T07:12:46.962Z,32.22
2017-09-24T07:15:17.405Z,28.77
2017-09-24T07:17:48.721Z,30.62
2017-09-24T07:20:17.905Z,27.65
2017-09-24T07:22:47.827Z,30.33
2017-09-24T07:25:19.195Z,32.33
2017-09-24T07:27:49.312Z,30.90
2017-09-24T07:30:21.203Z,32.58
2017-09-24T07:32:52.792Z,32.40
2017-09-24T07:35:23.212Z,30.88
2017-09-24T07:40:31.006Z,34.38
2017-09-24T07:43:01.386Z,35.22
2017-09-24T07:45:30.769Z,36.60
2017-09-24T07:48:02.209Z,34.03
2017-09-24T07:50:34.423Z,33.88
2017-09-24T07:53:07.912Z,35.17
2017-09-24T07:55:40.991Z,35.10
2017-09-24T07:58:13.179Z,34.65
2017-09-24T08:00:43.767Z,32.70
2017-09-24T08:03:13.563Z,32.65
2017-09-24T08:05:44.219Z,33.20
2017-09-24T08:08:16.657Z,29.52
2017-09-24T08:10:48.298Z,31.92
2017-09-24T08:13:20.085Z,32.17
2017-09-24T08:15:51.190Z,34.70
2017-09-24T08:18:23.731Z,33.83
2017-09-24T08:20:55.223Z,34.40
2017-09-24T08:23:25.625Z,33.03
2017-09-24T08:25:56.869Z,30.88
2017-09-24T08:28:28.542Z,28.90
2017-09-24T08:30:58.411Z,29.95
2017-09-24T08:33:29.515Z,28.12
2017-09-24T08:36:01.448Z,29.02
2017-09-24T08:38:33.134Z,31.85
2017-09-24T08:41:05.080Z,32.28
2017-09-24T08:43:37.050Z,32.75
2017-09-24T08:46:07.583Z,29.37
2017-09-24T08:48:39.866Z,27.87
2017-09-24T08:51:10.903Z,28.15
2017-09-24T08:53:42.148Z,28.45
2017-09-24T08:56:13.249Z,27.77
2017-09-24T08:58:42.782Z,28.20
2017-09-24T09:01:15.181Z,28.27
2017-09-24T09:03:45.161Z,26.48
2017-09-24T09:06:16.018Z,26.40
2017-09-24T09:08:48.633Z,25.50
2017-09-24T09:11:18.622Z,25.88
2017-09-24T09:13:51.877Z,26.60
2017-09-24T09:16:23.242Z,24.92
2017-09-24T09:18:54.389Z,25.52
2017-09-24T09:21:25.777Z,23.40
2017-09-24T09:23:56.847Z,25.50
2017-09-24T09:26:27.606Z,24.55
2017-09-24T09:28:59.704Z,24.12
2017-09-24T09:31:29.874Z,24.25
2017-09-24T09:34:00.703Z,23.65
2017-09-24T09:36:31.485Z,23.10
2017-09-24T09:39:03.133Z,24.52
2017-09-24T09:41:34.225Z,24.00
2017-09-24T09:44:07.260Z,24.08
2017-09-24T09:46:38.935Z,24.23
2017-09-24T09:49:09.321Z,22.98
2017-09-24T09:51:40.419Z,23.77
2017-09-24T09:54:11.463Z,23.42
2017-09-24T09:56:44.052Z,24.02
2017-09-24T09:59:15.771Z,25.08
2017-09-24T10:01:46.077Z,23.60
2017-09-24T10:04:16.592Z,22.02
2017-09-24T10:06:48.273Z,22.73
2017-09-24T10:09:18.936Z,22.75
2017-09-24T10:11:49.738Z,21.50
2017-09-24T10:14:20.912Z,20.10
2017-09-24T10:16:53.762Z,20.27
2017-09-24T10:19:25.811Z,20.83
2017-09-24T10:21:56.432Z,20.00
2017-09-24T10:24:26.708Z,19.52
2017-09-24T10:26:58.198Z,15.60
2017-09-24T10:29:29.567Z,13.93
2017-09-24T10:32:01.382Z,15.75
2017-09-24T10:34:33.925Z,14.60
2017-09-24T10:37:04.881Z,15.15
2017-09-24T10:39:49.241Z,17.85
2017-09-24T10:42:19.497Z,17.65
2017-09-24T10:44:50.984Z,18.30
2017-09-24T10:47:23.065Z,16.17
2017-09-24T10:49:53.748Z,14.38
2017-09-24T10:52:24.937Z,17.10
2017-09-24T10:54:52.610Z,20.12
2017-09-24T10:57:20.550Z,16.98
2017-09-24T10:59:50.449Z,17.40
2017-09-24T11:02:18.256Z,15.65
2017-09-24T11:04:48.736Z,17.80
2017-09-24T11:07:20.521Z,17.80
2017-09-24T11:09:51.694Z,17.20
2017-09-24T11:12:21.809Z,16.50
2017-09-24T11:14:50.606Z,16.62
2017-09-24T11:17:20.821Z,15.18
2017-09-24T11:19:53.084Z,13.45
2017-09-24T11:22:23.609Z,14.87
2017-09-24T11:24:52.883Z,13.25
2017-09-24T11:27:23.564Z,15.10
2017-09-24T11:29:55.132Z,12.70
2017-09-24T14:38:31.305Z,11.20
2017-09-24T14:41:03.193Z,9.73
2017-09-24T14:43:35.913Z,12.05
2017-09-24T14:46:07.936Z,11.60
2017-09-24T14:51:32.663Z,14.38
2017-09-24T14:54:03.437Z,14.75
2017-09-24T14:56:34.509Z,13.55
2017-09-24T14:59:04.784Z,12.85
2017-09-24T15:01:38.736Z,12.20
2017-09-24T15:04:08.187Z,12.20
2017-09-24T15:09:16.262Z,12.70
2017-09-24T15:11:50.435Z,10.90
2017-09-24T15:14:21.281Z,11.30
2017-09-24T15:16:54.258Z,12.30
2017-09-24T15:19:24.390Z,12.75
2017-09-24T15:21:57.133Z,12.68
2017-09-24T15:24:28.922Z,11.25
2017-09-24T15:27:07.293Z,11.88
2017-09-24T15:29:39.085Z,12.40
2017-09-24T15:32:17.409Z,13.07
2017-09-24T15:34:49.071Z,12.27
2017-09-24T15:37:21.535Z,13.05
2017-09-24T15:39:52.254Z,12.82
2017-09-24T15:42:22.162Z,12.40
2017-09-24T15:44:55.386Z,11.48
2017-09-24T15:47:23.917Z,12.18
2017-09-24T15:49:56.752Z,12.23
2017-09-24T15:52:28.526Z,13.07
2017-09-24T15:55:01.105Z,13.60
2017-09-24T15:57:32.730Z,13.10
2017-09-24T16:00:04.933Z,15.18
2017-09-24T16:02:36.338Z,13.35
2017-09-24T16:05:07.366Z,12.05
2017-09-24T16:07:39.556Z,13.27
2017-09-24T16:10:12.740Z,12.88
2017-09-24T16:12:41.943Z,13.18
2017-09-24T16:15:10.937Z,13.43
2017-09-24T16:17:43.004Z,11.77
2017-09-24T16:20:14.460Z,11.15
2017-09-24T16:22:43.219Z,12.82
2017-09-24T16:25:14.586Z,13.77
2017-09-24T16:27:45.944Z,14.13
2017-09-24T16:30:17.388Z,13.50
2017-09-24T16:32:49.555Z,12.80
2017-09-24T16:37:58.850Z,14.18
2017-09-24T16:40:29.412Z,14.60
2017-09-24T16:43:01.400Z,14.30
2017-09-24T16:45:34.907Z,13.95
2017-09-24T16:48:07.874Z,13.70
2017-09-24T16:50:38.430Z,14.90
2017-09-24T16:53:07.936Z,13.80
2017-09-24T16:55:39.676Z,15.75
2017-09-24T16:58:08.005Z,16.55
2017-09-24T17:00:40.131Z,14.75
2017-09-24T17:06:21.128Z,13.50
2017-09-24T17:08:59.218Z,14.48
2017-09-24T17:11:30.060Z,17.50
2017-09-24T17:17:28.507Z,17.50
2017-09-24T17:20:23.176Z,18.62
2017-09-24T17:29:15.490Z,19.23
2017-09-24T17:31:49.482Z,21.05
2017-09-24T17:34:21.104Z,21.08
2017-09-24T17:36:53.691Z,21.77
2017-09-24T17:39:26.066Z,23.15
